Semora, North Carolina
Current Conditions -  °F | °C
As of 6:53 AM on Friday 19 Dec 2014 (Local Time) from KDAN Reporting Station
Clear Clear  
Wind Chill: 31°   Ceiling: Unl
Heat Index: 36°   Visibility: 10mi
Dew Point: 20°   Wind: 6mph
Humidity: 52%   Direction: 300°WNW
Pressure: 30.14"   Gusts: NA
Location:  36.5°N, 79.15°W
Report Text: KDAN 191153Z AUTO 30005KT 10SM CLR 02/M07 A3014 RMK AO2 SLP205 T00221067 10056 20017 53012
Loading
Personal Weather Stations






























Interactive Weather Map New forecast layout! Learn more

10-Day Weather Forecast

Advertisements
Track Severe Weather on mobile